sensor_id;sensor_type;location;lat;lon;timestamp;temperature;humidity
48728;DHT22;34527;45.618;5.130;2022-11-18T00:00:50;12.30;99.90
48728;DHT22;34527;45.618;5.130;2022-11-18T00:03:16;12.20;99.90
48728;DHT22;34527;45.618;5.130;2022-11-18T00:05:42;12.20;99.90
48728;DHT22;34527;45.618;5.130;2022-11-18T00:08:08;12.10;99.90
48728;DHT22;34527;45.618;5.130;2022-11-18T00:10:37;12.00;99.90
48728;DHT22;34527;45.618;5.130;2022-11-18T00:13:03;12.00;99.90
48728;DHT22;34527;45.618;5.130;2022-11-18T00:15:48;11.90;99.90
48728;DHT22;34527;45.618;5.130;2022-11-18T00:18:14;11.90;99.90
48728;DHT22;34527;45.618;5.130;2022-11-18T00:20:39;11.80;99.90
48728;DHT22;34527;45.618;5.130;2022-11-18T00:23:05;11.80;99.90
48728;DHT22;34527;45.618;5.130;2022-11-18T00:25:32;11.80;99.90
48728;DHT22;34527;45.618;5.130;2022-11-18T00:27:58;11.80;99.90
48728;DHT22;34527;45.618;5.130;2022-11-18T00:30:24;11.70;99.90
48728;DHT22;34527;45.618;5.130;2022-11-18T00:32:50;11.70;99.90
48728;DHT22;34527;45.618;5.130;2022-11-18T00:35:16;11.70;99.90
48728;DHT22;34527;45.618;5.130;2022-11-18T00:37:42;11.60;99.90
48728;DHT22;34527;45.618;5.130;2022-11-18T00:40:08;11.60;99.90
48728;DHT22;34527;45.618;5.130;2022-11-18T00:42:34;11.60;99.90
48728;DHT22;34527;45.618;5.130;2022-11-18T00:45:21;11.50;99.90
48728;DHT22;34527;45.618;5.130;2022-11-18T00:47:47;11.40;99.90
48728;DHT22;34527;45.618;5.130;2022-11-18T00:50:13;11.50;99.90
48728;DHT22;34527;45.618;5.130;2022-11-18T00:52:39;11.60;99.90
48728;DHT22;34527;45.618;5.130;2022-11-18T00:55:06;11.60;99.90
48728;DHT22;34527;45.618;5.130;2022-11-18T00:57:31;11.60;99.90
48728;DHT22;34527;45.618;5.130;2022-11-18T00:59:57;11.60;99.90
48728;DHT22;34527;45.618;5.130;2022-11-18T01:02:23;11.60;99.90
48728;DHT22;34527;45.618;5.130;2022-11-18T01:04:49;11.50;99.90
48728;DHT22;34527;45.618;5.130;2022-11-18T01:07:15;11.50;99.90
48728;DHT22;34527;45.618;5.130;2022-11-18T01:09:41;11.40;99.90
48728;DHT22;34527;45.618;5.130;2022-11-18T01:12:10;11.50;99.90
48728;DHT22;34527;45.618;5.130;2022-11-18T01:14:54;11.50;99.90
48728;DHT22;34527;45.618;5.130;2022-11-18T01:17:20;11.50;99.90
48728;DHT22;34527;45.618;5.130;2022-11-18T01:19:46;11.40;99.90
48728;DHT22;34527;45.618;5.130;2022-11-18T01:22:12;11.40;99.90
48728;DHT22;34527;45.618;5.130;2022-11-18T01:24:38;11.40;99.90
48728;DHT22;34527;45.618;5.130;2022-11-18T01:27:03;11.30;99.90
48728;DHT22;34527;45.618;5.130;2022-11-18T01:29:29;11.30;99.90
48728;DHT22;34527;45.618;5.130;2022-11-18T01:31:55;11.20;99.90
48728;DHT22;34527;45.618;5.130;2022-11-18T01:34:21;11.20;99.90
48728;DHT22;34527;45.618;5.130;2022-11-18T01:36:47;11.20;99.90
48728;DHT22;34527;45.618;5.130;2022-11-18T01:39:13;11.20;99.90
48728;DHT22;34527;45.618;5.130;2022-11-18T01:41:38;11.20;99.90
48728;DHT22;34527;45.618;5.130;2022-11-18T01:47:08;11.20;99.90
48728;DHT22;34527;45.618;5.130;2022-11-18T01:49:34;11.20;99.90
48728;DHT22;34527;45.618;5.130;2022-11-18T01:52:00;11.20;99.90
48728;DHT22;34527;45.618;5.130;2022-11-18T01:54:33;11.30;99.90
48728;DHT22;34527;45.618;5.130;2022-11-18T01:57:04;11.40;99.90
48728;DHT22;34527;45.618;5.130;2022-11-18T01:59:36;11.40;99.90
48728;DHT22;34527;45.618;5.130;2022-11-18T02:02:10;11.40;99.90
48728;DHT22;34527;45.618;5.130;2022-11-18T02:04:38;11.40;99.90
48728;DHT22;34527;45.618;5.130;2022-11-18T02:07:06;11.40;99.90
48728;DHT22;34527;45.618;5.130;2022-11-18T02:09:32;11.40;99.90
48728;DHT22;34527;45.618;5.130;2022-11-18T02:11:59;11.40;99.90
48728;DHT22;34527;45.618;5.130;2022-11-18T02:14:39;11.30;99.90
48728;DHT22;34527;45.618;5.130;2022-11-18T02:32:11;11.20;99.90
48728;DHT22;34527;45.618;5.130;2022-11-18T02:37:19;11.20;99.90
48728;DHT22;34527;45.618;5.130;2022-11-18T02:39:59;11.00;99.90
48728;DHT22;34527;45.618;5.130;2022-11-18T02:42:27;11.00;99.90
48728;DHT22;34527;45.618;5.130;2022-11-18T02:44:58;10.90;99.90
48728;DHT22;34527;45.618;5.130;2022-11-18T02:47:27;10.90;99.90
48728;DHT22;34527;45.618;5.130;2022-11-18T02:49:57;11.00;99.90
48728;DHT22;34527;45.618;5.130;2022-11-18T02:52:26;11.00;99.90
48728;DHT22;34527;45.618;5.130;2022-11-18T02:54:53;11.00;99.90
48728;DHT22;34527;45.618;5.130;2022-11-18T02:57:20;11.00;99.90
48728;DHT22;34527;45.618;5.130;2022-11-18T02:59:48;11.00;99.90
48728;DHT22;34527;45.618;5.130;2022-11-18T03:02:18;11.00;99.90
48728;DHT22;34527;45.618;5.130;2022-11-18T03:04:46;11.00;99.90
48728;DHT22;34527;45.618;5.130;2022-11-18T03:07:21;11.00;99.90
48728;DHT22;34527;45.618;5.130;2022-11-18T03:09:50;11.00;99.90
48728;DHT22;34527;45.618;5.130;2022-11-18T03:18:06;10.90;99.90
48728;DHT22;34527;45.618;5.130;2022-11-18T03:20:48;10.80;99.90
48728;DHT22;34527;45.618;5.130;2022-11-18T03:23:23;10.80;99.90
48728;DHT22;34527;45.618;5.130;2022-11-18T03:28:48;10.90;99.90
48728;DHT22;34527;45.618;5.130;2022-11-18T03:34:02;10.70;99.90
48728;DHT22;34527;45.618;5.130;2022-11-18T03:36:33;10.60;99.90
48728;DHT22;34527;45.618;5.130;2022-11-18T03:39:02;10.40;99.90
48728;DHT22;34527;45.618;5.130;2022-11-18T03:41:33;10.40;99.90
48728;DHT22;34527;45.618;5.130;2022-11-18T03:44:06;10.40;99.90
48728;DHT22;34527;45.618;5.130;2022-11-18T03:46:39;10.50;99.90
48728;DHT22;34527;45.618;5.130;2022-11-18T03:49:10;10.50;99.90
48728;DHT22;34527;45.618;5.130;2022-11-18T03:51:41;10.70;99.90
48728;DHT22;34527;45.618;5.130;2022-11-18T03:54:23;10.80;99.90
48728;DHT22;34527;45.618;5.130;2022-11-18T03:57:29;10.80;99.90
48728;DHT22;34527;45.618;5.130;2022-11-18T04:00:09;10.90;99.90
48728;DHT22;34527;45.618;5.130;2022-11-18T04:02:36;11.00;99.90
48728;DHT22;34527;45.618;5.130;2022-11-18T04:05:04;11.10;99.90
48728;DHT22;34527;45.618;5.130;2022-11-18T04:13:11;11.20;99.90
48728;DHT22;34527;45.618;5.130;2022-11-18T04:15:41;11.20;99.90
48728;DHT22;34527;45.618;5.130;2022-11-18T04:18:07;11.20;99.90
48728;DHT22;34527;45.618;5.130;2022-11-18T04:20:34;11.20;99.90
48728;DHT22;34527;45.618;5.130;2022-11-18T04:23:03;11.20;99.90
48728;DHT22;34527;45.618;5.130;2022-11-18T04:25:29;11.20;99.90
48728;DHT22;34527;45.618;5.130;2022-11-18T04:27:55;11.20;99.90
48728;DHT22;34527;45.618;5.130;2022-11-18T04:30:21;11.20;99.90
48728;DHT22;34527;45.618;5.130;2022-11-18T04:32:47;11.20;99.90
48728;DHT22;34527;45.618;5.130;2022-11-18T04:35:13;11.10;99.90
48728;DHT22;34527;45.618;5.130;2022-11-18T04:37:39;11.10;99.90
48728;DHT22;34527;45.618;5.130;2022-11-18T04:40:06;11.10;99.90
48728;DHT22;34527;45.618;5.130;2022-11-18T04:42:32;11.10;99.90
48728;DHT22;34527;45.618;5.130;2022-11-18T04:44:58;11.10;99.90
48728;DHT22;34527;45.618;5.130;2022-11-18T04:47:24;11.00;99.90
48728;DHT22;34527;45.618;5.130;2022-11-18T04:49:50;11.10;99.90
48728;DHT22;34527;45.618;5.130;2022-11-18T04:52:16;11.10;99.90
48728;DHT22;34527;45.618;5.130;2022-11-18T04:54:42;11.00;99.90
48728;DHT22;34527;45.618;5.130;2022-11-18T04:57:07;10.80;99.90
48728;DHT22;34527;45.618;5.130;2022-11-18T04:59:33;10.70;99.90
48728;DHT22;34527;45.618;5.130;2022-11-18T05:01:59;10.70;99.90
48728;DHT22;34527;45.618;5.130;2022-11-18T05:04:28;10.70;99.90
48728;DHT22;34527;45.618;5.130;2022-11-18T05:06:55;10.50;99.90
48728;DHT22;34527;45.618;5.130;2022-11-18T05:09:21;10.50;99.90
48728;DHT22;34527;45.618;5.130;2022-11-18T05:11:47;10.40;99.90
48728;DHT22;34527;45.618;5.130;2022-11-18T05:14:32;10.40;99.90
48728;DHT22;34527;45.618;5.130;2022-11-18T05:16:59;10.40;99.90
48728;DHT22;34527;45.618;5.130;2022-11-18T05:19:26;10.30;99.90
48728;DHT22;34527;45.618;5.130;2022-11-18T05:21:52;10.20;99.90
48728;DHT22;34527;45.618;5.130;2022-11-18T05:24:18;10.10;99.90
48728;DHT22;34527;45.618;5.130;2022-11-18T05:26:44;10.00;99.90
48728;DHT22;34527;45.618;5.130;2022-11-18T05:29:10;10.10;99.90
48728;DHT22;34527;45.618;5.130;2022-11-18T05:31:36;10.00;99.90
48728;DHT22;34527;45.618;5.130;2022-11-18T05:34:02;9.90;99.90
48728;DHT22;34527;45.618;5.130;2022-11-18T05:36:28;9.90;99.90
48728;DHT22;34527;45.618;5.130;2022-11-18T05:38:57;9.90;99.90
48728;DHT22;34527;45.618;5.130;2022-11-18T05:41:23;9.90;99.90
48728;DHT22;34527;45.618;5.130;2022-11-18T05:44:09;9.90;99.90
48728;DHT22;34527;45.618;5.130;2022-11-18T05:46:35;9.90;99.90
48728;DHT22;34527;45.618;5.130;2022-11-18T05:49:01;9.90;99.90
48728;DHT22;34527;45.618;5.130;2022-11-18T05:51:27;9.80;99.90
48728;DHT22;34527;45.618;5.130;2022-11-18T05:53:54;9.90;99.90
48728;DHT22;34527;45.618;5.130;2022-11-18T05:56:29;9.90;99.90
48728;DHT22;34527;45.618;5.130;2022-11-18T05:58:56;9.90;99.90
48728;DHT22;34527;45.618;5.130;2022-11-18T06:01:26;9.90;99.90
48728;DHT22;34527;45.618;5.130;2022-11-18T06:03:54;9.80;99.90
48728;DHT22;34527;45.618;5.130;2022-11-18T06:06:21;9.80;99.90
48728;DHT22;34527;45.618;5.130;2022-11-18T06:11:20;9.80;99.90
48728;DHT22;34527;45.618;5.130;2022-11-18T06:13:51;9.70;99.90
48728;DHT22;34527;45.618;5.130;2022-11-18T06:16:21;9.70;99.90
48728;DHT22;34527;45.618;5.130;2022-11-18T06:18:48;9.70;99.90
48728;DHT22;34527;45.618;5.130;2022-11-18T06:21:14;9.70;99.90
48728;DHT22;34527;45.618;5.130;2022-11-18T06:23:40;9.70;99.90
48728;DHT22;34527;45.618;5.130;2022-11-18T06:26:07;9.60;99.90
48728;DHT22;34527;45.618;5.130;2022-11-18T06:28:35;9.40;99.90
48728;DHT22;34527;45.618;5.130;2022-11-18T06:31:01;9.30;99.90
48728;DHT22;34527;45.618;5.130;2022-11-18T06:33:27;9.20;99.90
48728;DHT22;34527;45.618;5.130;2022-11-18T06:35:52;9.20;99.90
48728;DHT22;34527;45.618;5.130;2022-11-18T06:38:18;9.00;99.90
48728;DHT22;34527;45.618;5.130;2022-11-18T06:40:44;8.90;99.90
48728;DHT22;34527;45.618;5.130;2022-11-18T06:43:11;8.90;99.90
48728;DHT22;34527;45.618;5.130;2022-11-18T06:45:59;8.90;99.90
48728;DHT22;34527;45.618;5.130;2022-11-18T06:48:44;8.90;99.90
48728;DHT22;34527;45.618;5.130;2022-11-18T06:51:10;8.90;99.90
48728;DHT22;34527;45.618;5.130;2022-11-18T06:53:36;9.00;99.90
48728;DHT22;34527;45.618;5.130;2022-11-18T06:56:03;9.00;99.90
48728;DHT22;34527;45.618;5.130;2022-11-18T06:58:30;9.00;99.90
48728;DHT22;34527;45.618;5.130;2022-11-18T07:00:55;9.20;99.90
48728;DHT22;34527;45.618;5.130;2022-11-18T07:03:21;9.20;99.90
48728;DHT22;34527;45.618;5.130;2022-11-18T07:05:47;9.30;99.90
48728;DHT22;34527;45.618;5.130;2022-11-18T07:08:13;9.30;99.90
48728;DHT22;34527;45.618;5.130;2022-11-18T07:10:39;9.30;99.90
48728;DHT22;34527;45.618;5.130;2022-11-18T07:13:04;9.30;99.90
48728;DHT22;34527;45.618;5.130;2022-11-18T07:15:32;9.40;99.90
48728;DHT22;34527;45.618;5.130;2022-11-18T07:17:58;9.40;99.90
48728;DHT22;34527;45.618;5.130;2022-11-18T07:20:24;9.40;99.90
48728;DHT22;34527;45.618;5.130;2022-11-18T07:22:53;9.50;99.90
48728;DHT22;34527;45.618;5.130;2022-11-18T07:25:18;9.50;99.90
48728;DHT22;34527;45.618;5.130;2022-11-18T07:27:45;9.50;99.90
48728;DHT22;34527;45.618;5.130;2022-11-18T07:30:12;9.50;99.90
48728;DHT22;34527;45.618;5.130;2022-11-18T07:32:38;9.40;99.90
48728;DHT22;34527;45.618;5.130;2022-11-18T07:35:04;9.40;99.90
48728;DHT22;34527;45.618;5.130;2022-11-18T07:37:30;9.40;99.90
48728;DHT22;34527;45.618;5.130;2022-11-18T07:39:55;9.50;99.90
48728;DHT22;34527;45.618;5.130;2022-11-18T07:42:24;9.50;99.90
48728;DHT22;34527;45.618;5.130;2022-11-18T07:44:50;9.40;99.90
48728;DHT22;34527;45.618;5.130;2022-11-18T07:47:16;9.50;99.90
48728;DHT22;34527;45.618;5.130;2022-11-18T07:49:42;9.60;99.90
48728;DHT22;34527;45.618;5.130;2022-11-18T07:52:07;9.60;99.90
48728;DHT22;34527;45.618;5.130;2022-11-18T07:54:33;9.60;99.90
48728;DHT22;34527;45.618;5.130;2022-11-18T07:56:59;9.60;99.90
48728;DHT22;34527;45.618;5.130;2022-11-18T07:59:25;9.70;99.90
48728;DHT22;34527;45.618;5.130;2022-11-18T08:01:51;9.70;99.90
48728;DHT22;34527;45.618;5.130;2022-11-18T08:04:17;9.80;99.90
48728;DHT22;34527;45.618;5.130;2022-11-18T08:06:42;9.90;99.90
48728;DHT22;34527;45.618;5.130;2022-11-18T08:09:09;9.90;99.90
48728;DHT22;34527;45.618;5.130;2022-11-18T08:11:35;10.00;99.90
48728;DHT22;34527;45.618;5.130;2022-11-18T08:14:01;10.10;99.90
48728;DHT22;34527;45.618;5.130;2022-11-18T08:16:27;10.10;99.90
48728;DHT22;34527;45.618;5.130;2022-11-18T08:18:54;10.20;99.90
48728;DHT22;34527;45.618;5.130;2022-11-18T08:21:21;10.40;99.90
48728;DHT22;34527;45.618;5.130;2022-11-18T08:23:52;10.60;99.90
48728;DHT22;34527;45.618;5.130;2022-11-18T08:26:19;10.80;99.90
48728;DHT22;34527;45.618;5.130;2022-11-18T08:28:45;10.90;99.90
48728;DHT22;34527;45.618;5.130;2022-11-18T08:31:19;10.90;99.90
48728;DHT22;34527;45.618;5.130;2022-11-18T08:33:46;11.00;99.90
48728;DHT22;34527;45.618;5.130;2022-11-18T08:36:15;11.10;99.90
48728;DHT22;34527;45.618;5.130;2022-11-18T08:38:41;11.10;99.90
48728;DHT22;34527;45.618;5.130;2022-11-18T08:41:11;11.10;99.90
48728;DHT22;34527;45.618;5.130;2022-11-18T08:43:38;11.10;99.90
48728;DHT22;34527;45.618;5.130;2022-11-18T08:46:04;11.10;99.90
48728;DHT22;34527;45.618;5.130;2022-11-18T08:48:29;11.40;99.90
48728;DHT22;34527;45.618;5.130;2022-11-18T08:50:57;11.40;99.90
48728;DHT22;34527;45.618;5.130;2022-11-18T08:53:24;11.40;99.90
48728;DHT22;34527;45.618;5.130;2022-11-18T08:55:55;11.40;99.90
48728;DHT22;34527;45.618;5.130;2022-11-18T08:58:21;11.40;99.90
48728;DHT22;34527;45.618;5.130;2022-11-18T09:00:47;11.40;99.90
48728;DHT22;34527;45.618;5.130;2022-11-18T09:03:13;11.40;99.90
48728;DHT22;34527;45.618;5.130;2022-11-18T09:05:39;11.40;99.90
48728;DHT22;34527;45.618;5.130;2022-11-18T09:08:05;11.50;99.90
48728;DHT22;34527;45.618;5.130;2022-11-18T09:10:31;11.50;99.90
48728;DHT22;34527;45.618;5.130;2022-11-18T09:12:59;11.50;99.90
48728;DHT22;34527;45.618;5.130;2022-11-18T09:15:25;11.50;99.90
48728;DHT22;34527;45.618;5.130;2022-11-18T09:17:52;11.50;99.90
48728;DHT22;34527;45.618;5.130;2022-11-18T09:20:18;11.50;99.90
48728;DHT22;34527;45.618;5.130;2022-11-18T09:22:43;11.60;99.90
48728;DHT22;34527;45.618;5.130;2022-11-18T09:25:09;11.60;99.90
48728;DHT22;34527;45.618;5.130;2022-11-18T09:27:35;11.60;99.90
48728;DHT22;34527;45.618;5.130;2022-11-18T09:30:01;11.70;99.90
48728;DHT22;34527;45.618;5.130;2022-11-18T09:32:27;11.70;99.90
48728;DHT22;34527;45.618;5.130;2022-11-18T09:34:53;11.70;99.90
48728;DHT22;34527;45.618;5.130;2022-11-18T09:37:19;11.70;99.90
48728;DHT22;34527;45.618;5.130;2022-11-18T09:39:44;11.70;99.90
48728;DHT22;34527;45.618;5.130;2022-11-18T09:45:27;11.90;99.90
48728;DHT22;34527;45.618;5.130;2022-11-18T09:48:01;11.90;99.90
48728;DHT22;34527;45.618;5.130;2022-11-18T09:50:32;11.90;99.90
48728;DHT22;34527;45.618;5.130;2022-11-18T09:53:09;11.90;99.90
48728;DHT22;34527;45.618;5.130;2022-11-18T09:55:40;11.90;99.90
48728;DHT22;34527;45.618;5.130;2022-11-18T09:58:10;11.80;99.90
48728;DHT22;34527;45.618;5.130;2022-11-18T10:00:41;11.90;99.90
48728;DHT22;34527;45.618;5.130;2022-11-18T10:03:27;11.90;99.90
48728;DHT22;34527;45.618;5.130;2022-11-18T10:06:09;11.90;99.90
48728;DHT22;34527;45.618;5.130;2022-11-18T10:22:42;12.00;99.90
48728;DHT22;34527;45.618;5.130;2022-11-18T10:25:14;12.00;99.90
48728;DHT22;34527;45.618;5.130;2022-11-18T10:27:42;12.00;99.90
48728;DHT22;34527;45.618;5.130;2022-11-18T10:30:14;11.80;99.90
48728;DHT22;34527;45.618;5.130;2022-11-18T10:33:01;12.00;99.90
48728;DHT22;34527;45.618;5.130;2022-11-18T10:35:35;11.90;99.90
48728;DHT22;34527;45.618;5.130;2022-11-18T10:40:57;11.90;99.90
48728;DHT22;34527;45.618;5.130;2022-11-18T10:43:42;11.90;99.90
48728;DHT22;34527;45.618;5.130;2022-11-18T10:46:18;12.00;99.90
48728;DHT22;34527;45.618;5.130;2022-11-18T10:48:46;12.00;99.90
48728;DHT22;34527;45.618;5.130;2022-11-18T10:51:23;12.00;99.90
48728;DHT22;34527;45.618;5.130;2022-11-18T10:53:49;12.00;99.90
48728;DHT22;34527;45.618;5.130;2022-11-18T10:56:15;12.00;99.90
48728;DHT22;34527;45.618;5.130;2022-11-18T10:58:47;12.20;99.90
48728;DHT22;34527;45.618;5.130;2022-11-18T11:01:22;12.30;99.90
48728;DHT22;34527;45.618;5.130;2022-11-18T11:04:21;12.40;99.90
48728;DHT22;34527;45.618;5.130;2022-11-18T11:06:47;12.50;99.90
48728;DHT22;34527;45.618;5.130;2022-11-18T11:11:55;12.60;99.90
48728;DHT22;34527;45.618;5.130;2022-11-18T11:14:22;12.60;99.90
48728;DHT22;34527;45.618;5.130;2022-11-18T11:20:01;12.80;99.90
48728;DHT22;34527;45.618;5.130;2022-11-18T11:22:28;12.80;99.90
48728;DHT22;34527;45.618;5.130;2022-11-18T11:24:57;12.80;99.90
48728;DHT22;34527;45.618;5.130;2022-11-18T11:27:41;12.90;99.90
48728;DHT22;34527;45.618;5.130;2022-11-18T11:32:53;12.70;99.90
48728;DHT22;34527;45.618;5.130;2022-11-18T11:35:25;12.60;99.90
48728;DHT22;34527;45.618;5.130;2022-11-18T11:38:15;12.50;99.90
48728;DHT22;34527;45.618;5.130;2022-11-18T11:49:17;12.30;99.90
48728;DHT22;34527;45.618;5.130;2022-11-18T11:51:55;12.20;99.90
48728;DHT22;34527;45.618;5.130;2022-11-18T11:57:52;12.50;99.90
48728;DHT22;34527;45.618;5.130;2022-11-18T12:00:22;12.60;99.90
48728;DHT22;34527;45.618;5.130;2022-11-18T12:05:40;12.70;99.90
48728;DHT22;34527;45.618;5.130;2022-11-18T12:08:27;12.80;99.90
48728;DHT22;34527;45.618;5.130;2022-11-18T12:13:36;12.80;99.90
48728;DHT22;34527;45.618;5.130;2022-11-18T12:21:07;13.00;99.90
48728;DHT22;34527;45.618;5.130;2022-11-18T12:23:33;13.10;99.90
48728;DHT22;34527;45.618;5.130;2022-11-18T12:26:09;13.00;99.90
48728;DHT22;34527;45.618;5.130;2022-11-18T12:28:43;13.20;99.90
48728;DHT22;34527;45.618;5.130;2022-11-18T12:33:50;13.10;99.90
48728;DHT22;34527;45.618;5.130;2022-11-18T12:36:32;13.10;99.90
48728;DHT22;34527;45.618;5.130;2022-11-18T12:44:38;12.80;99.90
48728;DHT22;34527;45.618;5.130;2022-11-18T12:47:06;12.70;99.90
48728;DHT22;34527;45.618;5.130;2022-11-18T12:52:00;12.50;99.90
48728;DHT22;34527;45.618;5.130;2022-11-18T12:54:44;12.30;99.90
48728;DHT22;34527;45.618;5.130;2022-11-18T12:57:20;12.50;99.90
48728;DHT22;34527;45.618;5.130;2022-11-18T12:59:46;12.40;99.90
48728;DHT22;34527;45.618;5.130;2022-11-18T13:02:29;12.40;99.90
48728;DHT22;34527;45.618;5.130;2022-11-18T13:05:08;12.50;99.90
48728;DHT22;34527;45.618;5.130;2022-11-18T13:07:46;12.40;99.90
48728;DHT22;34527;45.618;5.130;2022-11-18T13:10:36;12.40;99.90
48728;DHT22;34527;45.618;5.130;2022-11-18T13:13:03;12.30;99.90
48728;DHT22;34527;45.618;5.130;2022-11-18T13:15:30;12.20;99.90
48728;DHT22;34527;45.618;5.130;2022-11-18T13:18:17;12.30;99.90
48728;DHT22;34527;45.618;5.130;2022-11-18T13:20:56;12.30;99.90
48728;DHT22;34527;45.618;5.130;2022-11-18T13:23:29;12.20;99.90
48728;DHT22;34527;45.618;5.130;2022-11-18T13:26:26;12.20;99.90
48728;DHT22;34527;45.618;5.130;2022-11-18T13:34:02;12.20;99.90
48728;DHT22;34527;45.618;5.130;2022-11-18T13:36:30;12.20;99.90
48728;DHT22;34527;45.618;5.130;2022-11-18T13:39:03;12.20;99.90
48728;DHT22;34527;45.618;5.130;2022-11-18T13:41:32;12.20;99.90
48728;DHT22;34527;45.618;5.130;2022-11-18T13:46:38;12.20;99.90
48728;DHT22;34527;45.618;5.130;2022-11-18T13:49:05;12.30;99.90
48728;DHT22;34527;45.618;5.130;2022-11-18T13:51:31;12.20;99.90
48728;DHT22;34527;45.618;5.130;2022-11-18T13:53:57;12.20;99.90
48728;DHT22;34527;45.618;5.130;2022-11-18T13:56:28;12.20;99.90
48728;DHT22;34527;45.618;5.130;2022-11-18T13:58:58;12.20;99.90
48728;DHT22;34527;45.618;5.130;2022-11-18T14:01:30;12.30;99.90
48728;DHT22;34527;45.618;5.130;2022-11-18T14:06:35;12.30;99.90
48728;DHT22;34527;45.618;5.130;2022-11-18T14:12:01;12.10;99.90
48728;DHT22;34527;45.618;5.130;2022-11-18T14:14:31;12.10;99.90
48728;DHT22;34527;45.618;5.130;2022-11-18T14:17:20;12.10;99.90
48728;DHT22;34527;45.618;5.130;2022-11-18T14:19:51;12.00;99.90
48728;DHT22;34527;45.618;5.130;2022-11-18T14:22:41;12.00;99.90
48728;DHT22;34527;45.618;5.130;2022-11-18T14:28:11;11.80;99.90
48728;DHT22;34527;45.618;5.130;2022-11-18T14:30:39;11.90;99.90
48728;DHT22;34527;45.618;5.130;2022-11-18T14:33:10;11.90;99.90
48728;DHT22;34527;45.618;5.130;2022-11-18T14:35:38;11.90;99.90
48728;DHT22;34527;45.618;5.130;2022-11-18T14:38:20;11.90;99.90
48728;DHT22;34527;45.618;5.130;2022-11-18T14:40:56;11.80;99.90
48728;DHT22;34527;45.618;5.130;2022-11-18T14:43:23;11.80;99.90
48728;DHT22;34527;45.618;5.130;2022-11-18T14:45:52;11.70;99.90
48728;DHT22;34527;45.618;5.130;2022-11-18T14:48:21;11.70;99.90
48728;DHT22;34527;45.618;5.130;2022-11-18T14:50:47;11.60;99.90
48728;DHT22;34527;45.618;5.130;2022-11-18T14:53:13;11.60;99.90
48728;DHT22;34527;45.618;5.130;2022-11-18T14:55:40;11.60;99.90
48728;DHT22;34527;45.618;5.130;2022-11-18T14:58:13;11.60;99.90
48728;DHT22;34527;45.618;5.130;2022-11-18T15:00:41;11.50;99.90
48728;DHT22;34527;45.618;5.130;2022-11-18T15:03:07;11.50;99.90
48728;DHT22;34527;45.618;5.130;2022-11-18T15:05:33;11.40;99.90
48728;DHT22;34527;45.618;5.130;2022-11-18T15:07:59;11.40;99.90
48728;DHT22;34527;45.618;5.130;2022-11-18T15:10:25;11.40;99.90
48728;DHT22;34527;45.618;5.130;2022-11-18T15:12:51;11.30;99.90
48728;DHT22;34527;45.618;5.130;2022-11-18T15:15:17;11.30;99.90
48728;DHT22;34527;45.618;5.130;2022-11-18T15:17:43;11.30;99.90
48728;DHT22;34527;45.618;5.130;2022-11-18T15:20:14;11.20;99.90
48728;DHT22;34527;45.618;5.130;2022-11-18T15:22:40;11.20;99.90
48728;DHT22;34527;45.618;5.130;2022-11-18T15:25:07;11.20;99.90
48728;DHT22;34527;45.618;5.130;2022-11-18T15:27:33;11.10;99.90
48728;DHT22;34527;45.618;5.130;2022-11-18T15:29:59;11.00;99.90
48728;DHT22;34527;45.618;5.130;2022-11-18T15:32:25;11.00;99.90
48728;DHT22;34527;45.618;5.130;2022-11-18T15:34:50;11.00;99.90
48728;DHT22;34527;45.618;5.130;2022-11-18T15:37:16;10.90;99.90
48728;DHT22;34527;45.618;5.130;2022-11-18T15:39:42;10.80;99.90
48728;DHT22;34527;45.618;5.130;2022-11-18T15:42:09;10.70;99.90
48728;DHT22;34527;45.618;5.130;2022-11-18T15:44:35;10.70;99.90
48728;DHT22;34527;45.618;5.130;2022-11-18T15:47:01;10.60;99.90
48728;DHT22;34527;45.618;5.130;2022-11-18T15:49:27;10.60;99.90
48728;DHT22;34527;45.618;5.130;2022-11-18T15:51:53;10.50;99.90
48728;DHT22;34527;45.618;5.130;2022-11-18T15:54:19;10.50;99.90
48728;DHT22;34527;45.618;5.130;2022-11-18T15:56:45;10.50;99.90
48728;DHT22;34527;45.618;5.130;2022-11-18T15:59:12;10.40;99.90
48728;DHT22;34527;45.618;5.130;2022-11-18T16:01:44;10.30;99.90
48728;DHT22;34527;45.618;5.130;2022-11-18T16:04:12;10.20;99.90
48728;DHT22;34527;45.618;5.130;2022-11-18T16:06:38;10.10;99.90
48728;DHT22;34527;45.618;5.130;2022-11-18T16:09:05;9.90;99.90
48728;DHT22;34527;45.618;5.130;2022-11-18T16:11:31;9.80;99.90
48728;DHT22;34527;45.618;5.130;2022-11-18T16:14:17;9.80;99.90
48728;DHT22;34527;45.618;5.130;2022-11-18T16:16:45;9.70;99.90
48728;DHT22;34527;45.618;5.130;2022-11-18T16:19:13;9.60;99.90
48728;DHT22;34527;45.618;5.130;2022-11-18T16:21:45;9.40;99.90
48728;DHT22;34527;45.618;5.130;2022-11-18T16:24:14;9.30;99.90
48728;DHT22;34527;45.618;5.130;2022-11-18T16:26:41;9.20;99.90
48728;DHT22;34527;45.618;5.130;2022-11-18T16:29:08;9.10;99.90
48728;DHT22;34527;45.618;5.130;2022-11-18T16:31:35;9.20;99.90
48728;DHT22;34527;45.618;5.130;2022-11-18T16:34:16;9.10;99.90
48728;DHT22;34527;45.618;5.130;2022-11-18T16:36:44;9.20;99.90
48728;DHT22;34527;45.618;5.130;2022-11-18T16:39:18;9.10;99.90
48728;DHT22;34527;45.618;5.130;2022-11-18T16:41:47;9.20;99.90
48728;DHT22;34527;45.618;5.130;2022-11-18T16:44:14;9.20;99.90
48728;DHT22;34527;45.618;5.130;2022-11-18T16:46:52;9.20;99.90
48728;DHT22;34527;45.618;5.130;2022-11-18T16:49:20;9.30;99.90
48728;DHT22;34527;45.618;5.130;2022-11-18T16:51:48;9.40;99.90
48728;DHT22;34527;45.618;5.130;2022-11-18T16:54:29;9.40;99.90
48728;DHT22;34527;45.618;5.130;2022-11-18T16:56:56;9.40;99.90
48728;DHT22;34527;45.618;5.130;2022-11-18T16:59:27;9.40;99.90
48728;DHT22;34527;45.618;5.130;2022-11-18T17:01:55;9.40;99.90
48728;DHT22;34527;45.618;5.130;2022-11-18T17:04:22;9.40;99.90
48728;DHT22;34527;45.618;5.130;2022-11-18T17:06:51;9.40;99.90
48728;DHT22;34527;45.618;5.130;2022-11-18T17:09:20;9.40;99.90
48728;DHT22;34527;45.618;5.130;2022-11-18T17:11:47;9.40;99.90
48728;DHT22;34527;45.618;5.130;2022-11-18T17:14:13;9.50;99.90
48728;DHT22;34527;45.618;5.130;2022-11-18T17:16:39;9.50;99.90
48728;DHT22;34527;45.618;5.130;2022-11-18T17:19:05;9.40;99.90
48728;DHT22;34527;45.618;5.130;2022-11-18T17:21:31;9.40;99.90
48728;DHT22;34527;45.618;5.130;2022-11-18T17:23:57;9.30;99.90
48728;DHT22;34527;45.618;5.130;2022-11-18T17:26:25;9.30;99.90
48728;DHT22;34527;45.618;5.130;2022-11-18T17:28:55;9.30;99.90
48728;DHT22;34527;45.618;5.130;2022-11-18T17:31:22;9.30;99.90
48728;DHT22;34527;45.618;5.130;2022-11-18T17:33:50;9.20;99.90
48728;DHT22;34527;45.618;5.130;2022-11-18T17:36:19;9.20;99.90
48728;DHT22;34527;45.618;5.130;2022-11-18T17:38:47;9.10;99.90
48728;DHT22;34527;45.618;5.130;2022-11-18T17:41:16;9.10;99.90
48728;DHT22;34527;45.618;5.130;2022-11-18T17:44:02;9.00;99.90
48728;DHT22;34527;45.618;5.130;2022-11-18T17:46:28;9.00;99.90